Terminal Aerodrome Forecast
Issued by NWS

Home | Current Version | Previous Version | Text Only | Print | Product List | Glossary On
Versions: 1 2 3 4 5 6 7 8 9 10 11 12 13 14 15 16 17 18
435
FTUS43 KJKL 121448 AAB
TAFSME
TAF AMD
KSME 121448Z 1215/1312 VRB03KT 4SM -SHSN BR SCT007 BKN020 OVC025
      TEMPO 1215/1217 3/4SM -SN BKN008
     FM121800 29009KT P6SM VCSH SCT010 OVC020=

USA.gov is the U.S. government's official web portal to all federal, state and local government web resources and services.